Time;durP1;ratioP1;P1;durP2;ratioP2;P2;SDS_P1;SDS_P2;PMS_P1;PMS_P2;Temp;Humidity;BMP_temperature;BMP_pressure;BME280_temperature;BME280_humidity;BME280_pressure;Samples;Min_cycle;Max_cycle;Signal;HPM_P1;HPM_P2
2023/09/04 00:01:40;;;;;;;0.10;0.10;;;15.70;99.90;;;;;;5063185;28;20182;-78
2023/09/04 00:04:06;;;;;;;0.10;0.10;;;15.70;99.90;;;;;;5065657;28;21042;-79
2023/09/04 00:06:32;;;;;;;0.10;0.10;;;15.60;99.90;;;;;;5070671;28;20696;-79
2023/09/04 00:08:59;;;;;;;0.10;0.10;;;15.50;99.90;;;;;;5066125;28;20452;-78
2023/09/04 00:11:28;;;;;;;0.10;0.10;;;15.60;99.90;;;;;;5052959;28;20215;-79
2023/09/04 00:13:54;;;;;;;0.10;0.10;;;15.40;99.90;;;;;;5066460;28;20447;-78
2023/09/04 00:16:19;;;;;;;0.10;0.10;;;15.30;99.90;;;;;;5085048;28;20447;-78
2023/09/04 00:18:45;;;;;;;0.10;0.10;;;15.20;99.90;;;;;;5069923;28;20194;-78
2023/09/04 00:21:11;;;;;;;0.10;0.10;;;15.30;99.90;;;;;;5069230;28;20251;-79
2023/09/04 00:23:36;;;;;;;0.10;0.10;;;15.20;99.90;;;;;;5066887;28;20719;-78
2023/09/04 00:26:02;;;;;;;0.10;0.10;;;15.30;99.90;;;;;;5060014;28;20214;-79
2023/09/04 00:28:27;;;;;;;0.10;0.10;;;15.20;99.90;;;;;;5066057;28;20584;-78
2023/09/04 00:30:53;;;;;;;0.10;0.10;;;15.10;99.90;;;;;;5068690;28;20277;-78
2023/09/04 00:33:19;;;;;;;0.10;0.10;;;15.10;99.90;;;;;;5070664;28;20194;-78
2023/09/04 00:35:45;;;;;;;0.10;0.10;;;15.10;99.90;;;;;;5076111;28;20579;-78
2023/09/04 00:38:10;;;;;;;0.10;0.10;;;15.10;99.90;;;;;;5073229;28;20186;-78
2023/09/04 00:40:35;;;;;;;0.10;0.10;;;15.10;99.90;;;;;;5076151;28;20208;-78
2023/09/04 00:43:01;;;;;;;0.10;0.10;;;15.10;99.90;;;;;;5062449;28;20230;-79
2023/09/04 00:45:28;;;;;;;0.10;0.10;;;15.00;99.90;;;;;;5077200;28;20226;-78
2023/09/04 00:47:53;;;;;;;0.10;0.10;;;15.00;99.90;;;;;;5051591;28;20197;-78
2023/09/04 00:50:22;;;;;;;0.10;0.10;;;14.90;99.90;;;;;;5086185;28;20441;-79
2023/09/04 00:52:55;;;;;;;0.10;0.10;;;14.80;99.90;;;;;;5054054;28;20189;-78
2023/09/04 00:55:21;;;;;;;0.10;0.10;;;15.00;99.90;;;;;;5070894;28;20436;-78
2023/09/04 00:57:48;;;;;;;0.10;0.10;;;14.90;99.90;;;;;;5069452;28;20480;-78
2023/09/04 01:00:14;;;;;;;0.10;0.10;;;14.90;99.90;;;;;;5071013;28;20552;-78
2023/09/04 01:02:40;;;;;;;0.10;0.10;;;15.00;99.90;;;;;;5080676;28;20460;-78
2023/09/04 01:05:07;;;;;;;0.10;0.10;;;15.10;99.90;;;;;;5072100;28;20508;-79
2023/09/04 01:07:33;;;;;;;0.10;0.10;;;15.10;99.90;;;;;;5072784;28;21039;-79
2023/09/04 01:10:00;;;;;;;0.10;0.10;;;15.10;99.90;;;;;;5074840;28;20436;-78
2023/09/04 01:12:55;;;;;;;0.10;0.10;;;15.10;99.90;;;;;;5083783;28;20456;-77
2023/09/04 01:15:20;;;;;;;0.10;0.10;;;15.00;99.90;;;;;;5074733;28;21208;-78
2023/09/04 01:17:47;;;;;;;0.10;0.10;;;14.90;99.90;;;;;;5052753;28;20487;-78
2023/09/04 01:20:29;;;;;;;0.10;0.10;;;14.90;99.90;;;;;;5069732;28;20196;-78
2023/09/04 01:22:56;;;;;;;0.10;0.10;;;14.90;99.90;;;;;;5053217;28;20843;-78
2023/09/04 01:25:29;;;;;;;0.10;0.10;;;15.00;99.90;;;;;;5069315;28;20483;-78
2023/09/04 01:28:12;;;;;;;0.10;0.10;;;15.00;99.90;;;;;;5069779;28;20813;-78
2023/09/04 01:30:53;;;;;;;0.10;0.10;;;15.10;99.90;;;;;;5068669;28;20481;-78
2023/09/04 01:33:28;;;;;;;0.10;0.10;;;15.10;99.90;;;;;;5086393;28;20808;-78
2023/09/04 01:35:56;;;;;;;0.10;0.10;;;15.20;99.90;;;;;;5081935;28;20450;-78
2023/09/04 01:38:22;;;;;;;0.10;0.10;;;15.10;99.90;;;;;;5069431;28;20434;-78
2023/09/04 01:40:51;;;;;;;0.10;0.10;;;15.00;99.90;;;;;;5083971;28;20496;-78
2023/09/04 01:43:17;;;;;;;0.00;0.00;;;15.10;99.90;;;;;;5085110;28;20527;-78
2023/09/04 01:45:43;;;;;;;0.00;0.00;;;15.10;99.90;;;;;;5087366;28;20485;-78
2023/09/04 01:48:08;;;;;;;0.00;0.00;;;15.20;99.90;;;;;;5088797;28;20435;-78
2023/09/04 01:50:34;;;;;;;0.00;0.00;;;15.20;99.90;;;;;;5088400;28;20351;-79
2023/09/04 01:53:00;;;;;;;0.00;0.00;;;15.10;99.90;;;;;;5087360;28;20227;-78
2023/09/04 01:55:25;;;;;;;0.10;0.10;;;15.20;99.90;;;;;;5071107;28;20203;-78
2023/09/04 01:57:51;;;;;;;0.10;0.10;;;15.20;99.90;;;;;;5086900;28;20304;-78
2023/09/04 02:00:16;;;;;;;0.10;0.10;;;15.20;99.90;;;;;;5087864;28;20237;-78
2023/09/04 02:02:42;;;;;;;0.10;0.10;;;15.20;99.90;;;;;;5088194;28;20671;-78
2023/09/04 02:05:08;;;;;;;0.10;0.10;;;15.10;99.90;;;;;;5089869;28;20761;-78
2023/09/04 02:07:33;;;;;;;0.10;0.10;;;15.20;99.90;;;;;;5089847;28;20200;-78
2023/09/04 02:09:59;;;;;;;0.10;0.10;;;15.00;99.90;;;;;;5085511;28;20562;-78
2023/09/04 02:12:24;;;;;;;0.10;0.10;;;14.80;99.90;;;;;;5064134;28;20692;-78
2023/09/04 02:14:53;;;;;;;0.10;0.10;;;14.70;99.90;;;;;;5089173;28;20196;-78
2023/09/04 02:17:18;;;;;;;0.10;0.10;;;14.90;99.90;;;;;;5068499;28;20191;-78
2023/09/04 02:19:44;;;;;;;0.10;0.10;;;14.80;99.90;;;;;;5085515;28;20443;-78
2023/09/04 02:22:09;;;;;;;0.00;0.00;;;14.70;99.90;;;;;;5069621;28;20185;-78
2023/09/04 02:24:35;;;;;;;0.10;0.10;;;14.90;99.90;;;;;;5087580;28;20822;-78
2023/09/04 02:27:00;;;;;;;0.10;0.10;;;14.80;99.90;;;;;;5085272;28;20193;-78
2023/09/04 02:29:26;;;;;;;0.10;0.10;;;14.80;99.90;;;;;;5069282;28;20212;-78
2023/09/04 02:31:51;;;;;;;0.10;0.10;;;14.70;99.90;;;;;;5085626;28;20603;-78
2023/09/04 02:34:17;;;;;;;0.10;0.10;;;14.70;99.90;;;;;;5078047;28;20276;-79
2023/09/04 02:36:42;;;;;;;0.10;0.10;;;14.70;99.90;;;;;;5075188;28;20196;-78
2023/09/04 02:39:08;;;;;;;0.10;0.10;;;14.50;99.90;;;;;;5061367;28;20182;-78
2023/09/04 02:41:33;;;;;;;0.10;0.10;;;14.50;99.90;;;;;;5071005;28;20552;-78
2023/09/04 02:43:59;;;;;;;0.10;0.10;;;14.40;99.90;;;;;;5067611;28;20271;-78
2023/09/04 02:46:24;;;;;;;0.10;0.10;;;14.50;99.90;;;;;;5064791;28;20362;-78
2023/09/04 02:48:50;;;;;;;0.10;0.10;;;14.60;99.90;;;;;;5067209;28;20209;-78
2023/09/04 02:51:15;;;;;;;0.10;0.10;;;14.60;99.90;;;;;;5070182;28;20189;-78
2023/09/04 02:53:41;;;;;;;0.10;0.10;;;14.80;99.90;;;;;;5070578;28;20177;-78
2023/09/04 02:56:06;;;;;;;0.10;0.10;;;14.90;99.90;;;;;;5068630;28;20616;-78
2023/09/04 02:58:32;;;;;;;0.10;0.10;;;14.70;99.90;;;;;;5078462;28;20185;-78
2023/09/04 03:00:57;;;;;;;0.10;0.10;;;14.90;99.90;;;;;;5080479;28;20553;-78
2023/09/04 03:03:24;;;;;;;0.10;0.10;;;14.80;99.90;;;;;;5067280;28;20269;-78
2023/09/04 03:05:49;;;;;;;0.10;0.10;;;14.80;99.90;;;;;;5046963;28;20237;-78
2023/09/04 03:08:15;;;;;;;0.10;0.10;;;14.80;99.90;;;;;;5068037;28;20439;-77
2023/09/04 03:10:40;;;;;;;0.10;0.10;;;14.80;99.90;;;;;;5049328;28;20182;-78
2023/09/04 03:13:06;;;;;;;0.10;0.10;;;14.80;99.90;;;;;;5070313;28;20197;-78
2023/09/04 03:15:31;;;;;;;0.10;0.10;;;14.70;99.90;;;;;;5080818;28;20189;-78
2023/09/04 03:17:57;;;;;;;0.10;0.10;;;14.70;99.90;;;;;;5069715;28;20629;-78
2023/09/04 03:20:22;;;;;;;0.10;0.10;;;14.70;99.90;;;;;;5069524;28;20239;-78
2023/09/04 03:22:48;;;;;;;0.10;0.10;;;14.70;99.90;;;;;;5070283;28;20268;-78
2023/09/04 03:25:14;;;;;;;0.10;0.10;;;14.80;99.90;;;;;;5074958;28;20217;-78
2023/09/04 03:27:39;;;;;;;0.10;0.10;;;14.80;99.90;;;;;;5059793;28;20181;-78
2023/09/04 03:30:05;;;;;;;0.10;0.10;;;14.60;99.90;;;;;;5059115;28;20254;-78
2023/09/04 03:32:31;;;;;;;0.10;0.10;;;14.70;99.90;;;;;;5069863;28;20197;-78
2023/09/04 03:34:56;;;;;;;0.10;0.10;;;14.50;99.90;;;;;;5068053;28;20476;-78
2023/09/04 03:37:23;;;;;;;0.10;0.10;;;14.50;99.90;;;;;;5040541;28;20560;-78
2023/09/04 03:39:49;;;;;;;0.10;0.10;;;14.40;99.90;;;;;;5051391;28;20428;-78
2023/09/04 03:42:14;;;;;;;0.10;0.10;;;14.50;99.90;;;;;;5073756;28;20192;-78
2023/09/04 03:44:40;;;;;;;0.10;0.10;;;14.30;99.90;;;;;;5050110;28;20263;-79
2023/09/04 03:47:05;;;;;;;0.10;0.10;;;14.10;99.90;;;;;;5066240;28;20232;-78
2023/09/04 03:49:31;;;;;;;0.10;0.10;;;14.00;99.90;;;;;;5066602;28;20188;-78
2023/09/04 03:51:56;;;;;;;0.10;0.10;;;13.90;99.90;;;;;;5048638;28;20201;-78
2023/09/04 03:54:22;;;;;;;0.10;0.10;;;13.90;99.90;;;;;;5062013;28;20259;-78
2023/09/04 03:56:50;;;;;;;0.10;0.10;;;13.80;99.90;;;;;;5061765;28;20190;-78
2023/09/04 03:59:15;;;;;;;0.10;0.10;;;13.60;99.90;;;;;;5053022;28;20417;-78
2023/09/04 04:01:43;;;;;;;0.10;0.10;;;13.50;99.90;;;;;;5072117;28;20927;-76
2023/09/04 04:04:12;;;;;;;0.10;0.10;;;13.50;99.90;;;;;;5053807;28;20182;-76
2023/09/04 04:06:37;;;;;;;0.10;0.10;;;13.40;99.90;;;;;;5069385;28;20568;-77
2023/09/04 04:09:03;;;;;;;0.10;0.10;;;13.40;99.90;;;;;;5068378;28;21021;-77
2023/09/04 04:11:29;;;;;;;0.10;0.10;;;13.30;99.90;;;;;;5051127;28;20200;-78
2023/09/04 04:13:54;;;;;;;0.10;0.10;;;13.30;99.90;;;;;;5071473;28;20190;-78
2023/09/04 04:16:20;;;;;;;0.10;0.10;;;13.30;99.90;;;;;;5066207;28;20190;-78
2023/09/04 04:18:45;;;;;;;0.00;0.00;;;13.20;99.90;;;;;;5069058;28;20210;-78
2023/09/04 04:21:11;;;;;;;0.10;0.10;;;13.30;99.90;;;;;;5068847;28;20186;-78
2023/09/04 04:23:36;;;;;;;0.00;0.00;;;13.40;99.90;;;;;;5049323;28;20789;-78
2023/09/04 04:26:03;;;;;;;0.10;0.10;;;13.30;99.90;;;;;;5069324;28;20259;-78
2023/09/04 04:28:28;;;;;;;0.10;0.10;;;13.50;99.90;;;;;;5077656;28;20657;-78
2023/09/04 04:30:54;;;;;;;0.10;0.10;;;13.60;99.90;;;;;;5063809;28;20478;-78
2023/09/04 04:33:21;;;;;;;0.10;0.10;;;13.60;99.90;;;;;;5054030;28;20181;-77
2023/09/04 04:35:51;;;;;;;0.10;0.10;;;13.80;99.90;;;;;;5086764;28;20549;-78
2023/09/04 04:38:17;;;;;;;0.10;0.10;;;13.80;99.90;;;;;;5080814;28;20435;-78
2023/09/04 04:40:42;;;;;;;0.10;0.10;;;13.80;99.90;;;;;;5053581;28;20463;-78
2023/09/04 04:43:11;;;;;;;0.10;0.10;;;13.80;99.90;;;;;;5071390;28;20661;-78
2023/09/04 04:45:36;;;;;;;0.10;0.10;;;13.80;99.90;;;;;;5060590;28;20218;-78
2023/09/04 04:48:03;;;;;;;0.10;0.10;;;13.80;99.90;;;;;;5063954;28;20439;-78
2023/09/04 04:50:29;;;;;;;0.10;0.10;;;13.80;99.90;;;;;;5070742;28;20193;-78
2023/09/04 04:52:54;;;;;;;0.10;0.10;;;13.80;99.90;;;;;;5069827;28;20444;-78
2023/09/04 04:55:20;;;;;;;0.10;0.10;;;13.80;99.90;;;;;;5075606;28;20185;-78
2023/09/04 04:57:45;;;;;;;0.10;0.10;;;13.80;99.90;;;;;;5074957;28;20194;-78
2023/09/04 05:00:12;;;;;;;0.10;0.10;;;13.80;99.90;;;;;;5067062;28;20200;-78
2023/09/04 05:02:37;;;;;;;0.10;0.10;;;13.80;99.90;;;;;;5061065;28;20278;-78
2023/09/04 05:05:03;;;;;;;0.10;0.10;;;13.90;99.90;;;;;;5061982;28;20483;-78
2023/09/04 05:07:29;;;;;;;0.10;0.10;;;13.80;99.90;;;;;;5066832;28;20201;-78
2023/09/04 05:09:56;;;;;;;0.10;0.10;;;13.90;99.90;;;;;;5068119;28;20444;-78
2023/09/04 05:12:23;;;;;;;0.10;0.10;;;13.90;99.90;;;;;;5074953;28;20193;-78
2023/09/04 05:14:49;;;;;;;0.10;0.10;;;13.90;99.90;;;;;;5072228;28;21022;-78
2023/09/04 05:17:15;;;;;;;0.10;0.10;;;13.90;99.90;;;;;;5086400;28;20447;-78
2023/09/04 05:19:40;;;;;;;0.10;0.10;;;14.00;99.90;;;;;;5092055;28;20910;-78
2023/09/04 05:22:06;;;;;;;0.10;0.10;;;14.00;99.90;;;;;;5072992;28;20190;-78
2023/09/04 05:24:31;;;;;;;0.10;0.10;;;14.00;99.90;;;;;;5071728;28;20265;-78
2023/09/04 05:26:57;;;;;;;0.10;0.10;;;14.00;99.90;;;;;;5071641;28;20227;-78
2023/09/04 05:29:23;;;;;;;0.10;0.10;;;14.00;99.90;;;;;;5071779;28;20641;-78
2023/09/04 05:31:50;;;;;;;0.10;0.10;;;14.00;99.90;;;;;;5069836;28;20659;-78
2023/09/04 05:34:16;;;;;;;0.10;0.10;;;14.00;99.90;;;;;;5078209;28;20837;-78
2023/09/04 05:36:41;;;;;;;0.10;0.10;;;14.00;99.90;;;;;;5087761;28;20922;-78
2023/09/04 05:39:08;;;;;;;0.10;0.10;;;14.10;99.90;;;;;;5090445;28;20192;-77
2023/09/04 05:41:34;;;;;;;0.10;0.10;;;14.10;99.90;;;;;;5108338;28;20180;-78
2023/09/04 05:43:59;;;;;;;0.10;0.10;;;14.00;99.90;;;;;;5075178;28;20973;-78
2023/09/04 05:46:25;;;;;;;0.10;0.10;;;14.00;99.90;;;;;;5064503;28;20228;-78
2023/09/04 05:48:51;;;;;;;0.10;0.10;;;14.00;99.90;;;;;;5091493;28;20663;-77
2023/09/04 05:51:16;;;;;;;0.10;0.10;;;14.00;99.90;;;;;;5089728;28;20447;-78
2023/09/04 05:53:42;;;;;;;0.10;0.10;;;14.10;99.90;;;;;;5088592;28;20201;-78
2023/09/04 05:56:09;;;;;;;0.10;0.10;;;14.10;99.90;;;;;;5090212;28;20396;-78
2023/09/04 05:58:51;;;;;;;0.20;0.20;;;14.00;99.90;;;;;;5099834;28;20189;-77
2023/09/04 06:01:18;;;;;;;0.10;0.10;;;14.00;99.90;;;;;;5087821;28;20458;-78
2023/09/04 06:03:45;;;;;;;0.10;0.10;;;14.10;99.90;;;;;;5088376;28;20516;-77
2023/09/04 06:06:12;;;;;;;0.10;0.10;;;14.20;99.90;;;;;;5091234;28;20813;-78
2023/09/04 06:08:37;;;;;;;0.10;0.10;;;14.30;99.90;;;;;;5086990;28;20439;-78
2023/09/04 06:11:04;;;;;;;0.10;0.10;;;14.40;99.90;;;;;;5103882;28;20447;-79
2023/09/04 06:13:30;;;;;;;0.10;0.10;;;14.40;99.90;;;;;;5095702;28;20193;-78
2023/09/04 06:15:57;;;;;;;0.10;0.10;;;14.50;99.90;;;;;;5088962;28;20989;-78
2023/09/04 06:18:23;;;;;;;0.10;0.10;;;14.50;99.90;;;;;;5088834;28;20450;-78
2023/09/04 06:20:50;;;;;;;0.10;0.10;;;14.60;99.90;;;;;;5088100;28;20774;-78
2023/09/04 06:23:16;;;;;;;0.10;0.10;;;14.60;99.90;;;;;;5097717;28;20585;-78
2023/09/04 06:25:43;;;;;;;0.10;0.10;;;14.60;99.90;;;;;;5081850;28;20960;-77
2023/09/04 06:28:09;;;;;;;0.10;0.10;;;14.70;99.90;;;;;;5098641;28;20454;-78
2023/09/04 06:30:35;;;;;;;0.10;0.10;;;14.70;99.90;;;;;;5077243;28;20454;-79
2023/09/04 06:33:02;;;;;;;0.10;0.10;;;14.80;99.90;;;;;;5083505;28;20446;-78
2023/09/04 06:35:28;;;;;;;0.10;0.10;;;14.70;99.90;;;;;;5047794;28;20225;-78
2023/09/04 06:37:54;;;;;;;0.10;0.10;;;14.80;99.90;;;;;;5074308;28;20452;-79
2023/09/04 06:40:19;;;;;;;0.10;0.10;;;14.90;99.90;;;;;;5076768;28;20480;-79
2023/09/04 06:42:45;;;;;;;0.10;0.10;;;15.00;99.90;;;;;;5059886;28;20201;-78
2023/09/04 06:45:11;;;;;;;0.10;0.10;;;15.00;99.90;;;;;;5065132;28;20229;-78
2023/09/04 06:47:38;;;;;;;0.10;0.10;;;14.90;99.90;;;;;;5078033;28;20193;-78
2023/09/04 06:50:04;;;;;;;0.10;0.10;;;15.00;99.90;;;;;;5081372;28;20626;-79
2023/09/04 06:52:30;;;;;;;0.10;0.10;;;15.10;99.90;;;;;;5066678;28;20950;-78
2023/09/04 06:54:55;;;;;;;0.10;0.10;;;15.00;99.90;;;;;;5087961;28;20445;-78
2023/09/04 06:57:21;;;;;;;0.10;0.10;;;15.10;99.90;;;;;;5083241;28;20705;-78
2023/09/04 06:59:46;;;;;;;0.10;0.10;;;15.20;99.90;;;;;;5090318;28;20220;-76
2023/09/04 07:02:12;;;;;;;0.10;0.10;;;15.40;99.90;;;;;;5067384;28;20711;-78
2023/09/04 07:04:37;;;;;;;0.10;0.10;;;15.40;99.90;;;;;;5075881;28;20688;-78
2023/09/04 07:07:04;;;;;;;0.10;0.10;;;15.60;99.90;;;;;;5086069;28;20192;-77
2023/09/04 07:09:30;;;;;;;0.10;0.10;;;15.60;99.90;;;;;;5080467;28;20193;-78
2023/09/04 07:11:55;;;;;;;0.10;0.10;;;15.70;99.90;;;;;;5091324;28;20850;-78
2023/09/04 07:14:21;;;;;;;0.10;0.10;;;15.70;99.90;;;;;;5062314;28;20261;-78
2023/09/04 07:16:46;;;;;;;0.10;0.10;;;15.80;99.90;;;;;;5080362;28;20271;-78
2023/09/04 07:19:12;;;;;;;0.10;0.10;;;15.90;99.90;;;;;;5084305;28;20228;-78
2023/09/04 07:21:40;;;;;;;0.10;0.10;;;16.00;99.90;;;;;;5085492;28;20275;-79
2023/09/04 07:24:06;;;;;;;0.10;0.10;;;16.10;99.90;;;;;;5071232;28;20182;-78
2023/09/04 07:26:31;;;;;;;0.10;0.10;;;16.30;99.90;;;;;;5078379;28;20479;-79
2023/09/04 07:28:57;;;;;;;0.10;0.10;;;16.40;99.90;;;;;;5092058;28;20533;-79
2023/09/04 07:31:22;;;;;;;0.10;0.10;;;16.60;99.90;;;;;;5086974;28;20188;-79
2023/09/04 07:33:49;;;;;;;0.10;0.10;;;16.60;99.90;;;;;;5082371;28;20221;-79
2023/09/04 07:36:14;;;;;;;0.10;0.10;;;16.70;99.90;;;;;;5087219;28;20205;-79
2023/09/04 07:38:41;;;;;;;0.10;0.10;;;16.80;99.90;;;;;;5064773;28;20684;-79
2023/09/04 07:41:07;;;;;;;0.10;0.10;;;17.00;99.90;;;;;;5077903;28;20741;-79
2023/09/04 07:43:33;;;;;;;0.10;0.10;;;17.20;99.90;;;;;;5077591;28;20424;-79
2023/09/04 07:46:00;;;;;;;0.10;0.10;;;17.20;99.90;;;;;;5074159;28;20394;-79
2023/09/04 07:48:25;;;;;;;0.10;0.10;;;17.50;99.90;;;;;;5085940;28;20439;-78
2023/09/04 07:50:54;;;;;;;0.10;0.10;;;17.70;99.90;;;;;;5084625;28;20560;-79
2023/09/04 07:53:20;;;;;;;0.10;0.10;;;18.00;99.90;;;;;;5051228;28;20184;-80
2023/09/04 07:55:47;;;;;;;0.10;0.10;;;18.20;99.90;;;;;;5075825;28;20443;-79
2023/09/04 07:58:13;;;;;;;0.00;0.00;;;18.30;99.90;;;;;;5046629;28;20428;-79
2023/09/04 08:00:46;;;;;;;0.10;0.10;;;18.40;99.90;;;;;;5082932;28;20458;-79
2023/09/04 08:03:12;;;;;;;0.10;0.00;;;18.50;99.90;;;;;;5065685;28;20204;-80
2023/09/04 08:05:38;;;;;;;0.10;0.10;;;18.70;99.90;;;;;;5064720;28;20480;-79
2023/09/04 08:08:08;;;;;;;0.10;0.10;;;18.80;99.90;;;;;;5086685;28;21016;-79
2023/09/04 08:10:34;;;;;;;0.10;0.00;;;19.00;99.90;;;;;;5078370;28;20185;-79
2023/09/04 08:12:59;;;;;;;0.10;0.00;;;19.10;99.90;;;;;;5078796;28;20916;-79
2023/09/04 08:15:25;;;;;;;0.00;0.00;;;19.30;99.90;;;;;;5054348;28;20455;-80
2023/09/04 08:17:50;;;;;;;0.10;0.00;;;19.40;99.90;;;;;;5080074;28;20185;-79
2023/09/04 08:20:16;;;;;;;0.00;0.00;;;19.50;99.90;;;;;;5083601;28;20202;-79
2023/09/04 08:22:41;;;;;;;0.00;0.00;;;19.50;99.90;;;;;;5077696;28;20186;-79
2023/09/04 08:25:08;;;;;;;0.10;0.00;;;19.60;99.90;;;;;;5059194;28;20214;-79
2023/09/04 08:27:34;;;;;;;0.10;0.10;;;19.80;99.90;;;;;;5077436;28;20189;-79
2023/09/04 08:29:59;;;;;;;0.00;0.00;;;20.00;99.90;;;;;;5079824;28;20462;-78
2023/09/04 08:32:25;;;;;;;0.00;0.00;;;20.10;99.90;;;;;;5057955;28;20193;-79
2023/09/04 08:34:51;;;;;;;0.10;0.00;;;20.20;99.90;;;;;;5067598;28;20256;-79
2023/09/04 08:37:16;;;;;;;0.10;0.10;;;20.30;99.90;;;;;;5083398;28;20196;-79
2023/09/04 08:39:41;;;;;;;0.10;0.00;;;20.30;99.90;;;;;;5072371;28;20207;-79
2023/09/04 08:42:09;;;;;;;0.10;0.00;;;20.40;99.90;;;;;;5090672;28;20185;-79
2023/09/04 08:44:36;;;;;;;0.00;0.00;;;20.40;99.90;;;;;;5077416;28;20192;-79
2023/09/04 08:47:03;;;;;;;0.00;0.00;;;20.50;99.90;;;;;;5079587;28;20556;-79
2023/09/04 08:49:28;;;;;;;0.00;0.00;;;20.90;99.90;;;;;;5074031;28;20908;-80
2023/09/04 08:51:56;;;;;;;0.00;0.00;;;20.80;99.90;;;;;;5086401;28;20442;-80
2023/09/04 08:54:22;;;;;;;0.00;0.00;;;20.90;99.90;;;;;;5082286;28;20181;-80
2023/09/04 08:56:47;;;;;;;0.00;0.00;;;20.90;99.90;;;;;;5092420;28;20443;-80
2023/09/04 08:59:13;;;;;;;0.00;0.00;;;21.10;99.90;;;;;;5085764;28;20485;-80
2023/09/04 09:01:41;;;;;;;0.00;0.00;;;21.30;99.90;;;;;;5071488;28;20178;-80
2023/09/04 09:04:07;;;;;;;0.00;0.00;;;21.10;99.90;;;;;;5088347;28;20643;-80
2023/09/04 09:06:33;;;;;;;0.00;0.00;;;21.20;99.90;;;;;;5087106;28;20540;-79
2023/09/04 09:09:00;;;;;;;0.00;0.00;;;21.60;99.90;;;;;;5090013;28;20181;-80
2023/09/04 09:11:26;;;;;;;0.00;0.00;;;21.80;99.90;;;;;;5080958;28;20935;-79
2023/09/04 09:13:51;;;;;;;0.00;0.00;;;22.10;99.90;;;;;;5065505;28;20440;-80
2023/09/04 09:16:19;;;;;;;0.00;0.00;;;21.80;99.90;;;;;;5092157;28;20879;-80
2023/09/04 09:18:44;;;;;;;0.00;0.00;;;22.10;99.90;;;;;;5083494;28;20181;-79
2023/09/04 09:21:43;;;;;;;0.00;0.00;;;21.80;99.90;;;;;;5062451;28;20493;-80
2023/09/04 09:24:13;;;;;;;0.00;0.00;;;22.20;99.90;;;;;;5056084;28;20189;-79
2023/09/04 09:26:41;;;;;;;0.00;0.00;;;22.60;99.90;;;;;;5072760;28;20486;-80
2023/09/04 09:29:08;;;;;;;0.00;0.00;;;22.60;99.90;;;;;;5089686;28;21034;-80
2023/09/04 09:31:36;;;;;;;0.00;0.00;;;22.40;99.90;;;;;;5061488;28;20443;-80
2023/09/04 09:34:03;;;;;;;0.00;0.00;;;22.90;99.90;;;;;;5075735;28;20487;-79
2023/09/04 09:36:29;;;;;;;0.00;0.00;;;22.90;99.90;;;;;;5060642;28;20441;-81
2023/09/04 09:38:54;;;;;;;0.00;0.00;;;23.10;99.90;;;;;;5087919;28;20488;-80
2023/09/04 09:41:20;;;;;;;0.00;0.00;;;23.30;99.90;;;;;;5089875;28;20197;-80
2023/09/04 09:43:46;;;;;;;0.00;0.00;;;23.00;99.90;;;;;;5056334;28;20174;-80
2023/09/04 09:46:16;;;;;;;0.00;0.00;;;23.40;99.90;;;;;;5063115;28;20225;-80
2023/09/04 09:48:45;;;;;;;0.00;0.00;;;23.60;99.90;;;;;;5079325;28;20190;-79
2023/09/04 09:51:11;;;;;;;0.00;0.00;;;23.80;99.90;;;;;;5077128;28;20548;-79
2023/09/04 09:53:50;;;;;;;0.00;0.00;;;23.70;99.90;;;;;;5079361;28;20446;-80
2023/09/04 09:56:18;;;;;;;0.00;0.00;;;23.70;99.90;;;;;;5091605;28;20181;-79
2023/09/04 09:58:48;;;;;;;0.00;0.00;;;23.70;99.90;;;;;;5090430;28;20957;-79
2023/09/04 10:01:15;;;;;;;0.00;0.00;;;24.10;99.90;;;;;;5052111;28;20459;-79
2023/09/04 10:03:43;;;;;;;0.00;0.00;;;24.20;99.90;;;;;;5062910;28;20442;-79
2023/09/04 10:06:11;;;;;;;0.00;0.00;;;24.60;99.90;;;;;;5090860;28;20988;-77
2023/09/04 10:08:40;;;;;;;0.00;0.00;;;24.50;99.90;;;;;;5086156;28;20445;-77
2023/09/04 10:11:08;;;;;;;0.00;0.00;;;24.80;99.90;;;;;;5075710;28;20480;-77
2023/09/04 10:13:38;;;;;;;0.00;0.00;;;25.10;99.90;;;;;;5071305;28;20478;-76
2023/09/04 10:16:11;;;;;;;0.00;0.00;;;25.40;99.90;;;;;;5069856;28;20492;-78
2023/09/04 10:18:40;;;;;;;0.00;0.00;;;25.20;99.90;;;;;;5063029;28;20444;-78
2023/09/04 10:21:08;;;;;;;0.00;0.00;;;24.90;99.90;;;;;;5070038;28;20963;-78
2023/09/04 10:23:43;;;;;;;0.00;0.00;;;25.20;99.90;;;;;;5072647;28;20536;-77
2023/09/04 10:26:14;;;;;;;0.00;0.00;;;25.90;99.90;;;;;;5078805;28;20497;-77
2023/09/04 10:28:40;;;;;;;0.00;0.00;;;26.00;99.90;;;;;;5066904;28;20834;-78
2023/09/04 10:31:06;;;;;;;0.00;0.00;;;26.10;99.90;;;;;;5080322;28;20459;-78
2023/09/04 10:33:32;;;;;;;0.00;0.00;;;26.20;99.90;;;;;;5088661;28;20459;-78
2023/09/04 10:35:58;;;;;;;0.00;0.00;;;26.50;99.90;;;;;;5079021;28;20188;-77
2023/09/04 10:38:25;;;;;;;0.00;0.00;;;26.80;99.90;;;;;;5095187;28;20185;-78
2023/09/04 10:40:51;;;;;;;0.00;0.00;;;26.90;99.90;;;;;;5087928;28;20193;-78
2023/09/04 10:43:17;;;;;;;0.00;0.00;;;27.30;99.90;;;;;;5084822;28;20894;-77
2023/09/04 10:46:03;;;;;;;0.00;0.00;;;27.00;99.90;;;;;;5078822;28;20554;-77
2023/09/04 10:48:48;;;;;;;0.00;0.00;;;27.30;99.90;;;;;;5082617;28;20197;-77
2023/09/04 10:51:29;;;;;;;0.00;0.00;;;27.40;99.90;;;;;;5084923;28;20474;-79
2023/09/04 10:53:57;;;;;;;0.00;0.00;;;26.70;99.90;;;;;;5072302;28;20533;-78
2023/09/04 10:56:22;;;;;;;0.00;0.00;;;27.10;99.90;;;;;;5090099;28;20439;-78
2023/09/04 10:59:04;;;;;;;0.00;0.00;;;27.40;99.90;;;;;;5088524;28;20952;-78
2023/09/04 11:01:35;;;;;;;0.00;0.00;;;27.60;99.90;;;;;;5079142;28;20273;-78
2023/09/04 11:04:02;;;;;;;0.00;0.00;;;28.20;99.90;;;;;;5075348;28;20446;-77
2023/09/04 11:06:28;;;;;;;0.00;0.00;;;27.30;99.90;;;;;;5079779;28;20482;-78
2023/09/04 11:08:54;;;;;;;0.00;0.00;;;27.80;99.90;;;;;;5097463;28;20467;-78
2023/09/04 11:11:25;;;;;;;0.00;0.00;;;27.60;99.90;;;;;;5056930;28;20513;-77
2023/09/04 11:14:02;;;;;;;0.00;0.00;;;27.80;99.90;;;;;;5083889;28;20528;-78
2023/09/04 11:16:38;;;;;;;0.00;0.00;;;28.30;99.90;;;;;;5080950;28;20442;-78
2023/09/04 11:19:07;;;;;;;0.00;0.00;;;28.00;99.90;;;;;;5065635;28;20426;-77
2023/09/04 11:21:35;;;;;;;0.00;0.00;;;27.90;99.90;;;;;;5076962;28;20441;-77
2023/09/04 11:24:02;;;;;;;0.00;0.00;;;29.10;99.90;;;;;;5082446;28;20452;-76
2023/09/04 11:26:29;;;;;;;0.00;0.00;;;29.30;99.90;;;;;;5083683;28;20470;-76
2023/09/04 11:28:59;;;;;;;0.00;0.00;;;29.50;99.90;;;;;;5087156;28;20453;-76
2023/09/04 11:31:26;;;;;;;0.00;0.00;;;30.20;99.90;;;;;;5078347;28;20450;-76
2023/09/04 11:33:52;;;;;;;0.00;0.00;;;29.80;99.90;;;;;;5079784;28;20475;-75
2023/09/04 11:36:18;;;;;;;0.00;0.00;;;29.80;99.90;;;;;;5089855;28;20423;-77
2023/09/04 11:38:43;;;;;;;0.00;0.00;;;29.50;99.90;;;;;;5096338;28;20192;-77
2023/09/04 11:41:16;;;;;;;0.00;0.00;;;29.80;99.90;;;;;;5100423;28;20215;-76
2023/09/04 11:43:43;;;;;;;0.00;0.00;;;29.90;99.90;;;;;;5089758;28;20829;-76
2023/09/04 11:46:10;;;;;;;0.00;0.00;;;30.20;99.90;;;;;;5068420;28;20874;-75
2023/09/04 11:48:36;;;;;;;0.00;0.00;;;30.00;99.90;;;;;;5089092;28;20442;-76
2023/09/04 11:51:04;;;;;;;0.00;0.00;;;30.00;99.90;;;;;;5077597;28;20438;-76
2023/09/04 11:53:30;;;;;;;0.00;0.00;;;29.50;99.90;;;;;;5076404;28;20189;-75
2023/09/04 11:55:57;;;;;;;0.00;0.00;;;30.10;99.90;;;;;;5086261;28;20442;-75
2023/09/04 11:58:22;;;;;;;0.00;0.00;;;29.80;99.90;;;;;;5095615;28;20432;-76
2023/09/04 12:00:48;;;;;;;0.00;0.00;;;29.20;99.90;;;;;;5093987;28;20953;-75
2023/09/04 12:03:13;;;;;;;0.00;0.00;;;30.20;99.90;;;;;;5090265;28;20644;-75
2023/09/04 12:05:41;;;;;;;0.00;0.00;;;30.50;99.90;;;;;;5084335;28;20577;-76
2023/09/04 12:08:06;;;;;;;0.00;0.00;;;31.20;99.90;;;;;;5083111;28;20714;-76
2023/09/04 12:10:33;;;;;;;0.00;0.00;;;30.70;99.90;;;;;;5052238;28;20444;-76
2023/09/04 12:12:59;;;;;;;0.00;0.00;;;31.10;99.90;;;;;;5072717;28;20188;-74
2023/09/04 12:15:30;;;;;;;0.00;0.00;;;30.60;99.90;;;;;;5081712;28;20443;-75
2023/09/04 12:17:58;;;;;;;0.00;0.00;;;30.50;99.90;;;;;;5069156;28;20228;-75
2023/09/04 12:20:23;;;;;;;0.00;0.00;;;30.70;99.90;;;;;;5089601;28;20469;-75
2023/09/04 12:22:58;;;;;;;0.00;0.00;;;31.30;99.90;;;;;;5072998;28;20448;-75
2023/09/04 12:25:33;;;;;;;0.00;0.00;;;30.90;99.90;;;;;;5059169;28;20220;-75
2023/09/04 12:27:58;;;;;;;0.00;0.00;;;30.70;99.90;;;;;;5090158;28;20415;-75
2023/09/04 12:30:24;;;;;;;0.00;0.00;;;31.20;99.90;;;;;;5090268;28;20451;-75
2023/09/04 12:32:50;;;;;;;0.00;0.00;;;31.00;99.90;;;;;;5073061;28;20563;-75
2023/09/04 12:35:18;;;;;;;0.00;0.00;;;31.50;99.90;;;;;;5083301;28;20623;-75
2023/09/04 12:37:43;;;;;;;0.00;0.00;;;31.00;99.90;;;;;;5093566;28;20841;-75
2023/09/04 12:40:10;;;;;;;0.00;0.00;;;31.00;99.90;;;;;;5092074;28;20974;-75
2023/09/04 12:42:38;;;;;;;0.00;0.00;;;31.30;99.90;;;;;;5084265;28;20209;-74
2023/09/04 12:45:06;;;;;;;0.00;0.00;;;32.20;99.90;;;;;;5093419;28;20466;-76
2023/09/04 12:47:32;;;;;;;0.00;0.00;;;30.60;99.90;;;;;;5072162;28;20432;-76